Lincoln Park, Nevada
Current Conditions -  °F | °C
As of 8:35 PM on Friday 24 Oct 2014 (Local Time) from KMEV Reporting Station
Clear Clear  
Wind Chill: 63°   Ceiling: Unl
Heat Index: 63°   Visibility: 10mi
Dew Point: 19°   Wind: 22mph
Humidity: 19%   Direction: 200°SSW
Pressure: 30.01"   Gusts: 28mph
Location:  39.0813°N, 119.897°W
Report Text: KMEV 250335Z AUTO 20019G24KT 10SM CLR 17/M07 A3001 RMK AO2
Loading
Personal Weather Stations






























Interactive Weather Map
Tropical Storm Tracking
New forecast layout! Learn more

10-Day Weather Forecast

Advertisements
Track Severe Weather on mobile